sensor_id;sensor_type;location;lat;lon;timestamp;temperature;humidity
5346;DHT22;2695;49.444;11.054;2023-04-07T00:02:00;6.00;63.80
5346;DHT22;2695;49.444;11.054;2023-04-07T00:04:28;5.90;64.10
5346;DHT22;2695;49.444;11.054;2023-04-07T00:06:56;5.90;64.40
5346;DHT22;2695;49.444;11.054;2023-04-07T00:09:24;5.90;64.50
5346;DHT22;2695;49.444;11.054;2023-04-07T00:11:52;5.90;64.80
5346;DHT22;2695;49.444;11.054;2023-04-07T00:14:21;5.90;65.10
5346;DHT22;2695;49.444;11.054;2023-04-07T00:16:49;5.90;65.10
5346;DHT22;2695;49.444;11.054;2023-04-07T00:19:17;5.90;65.10
5346;DHT22;2695;49.444;11.054;2023-04-07T00:21:45;5.80;65.00
5346;DHT22;2695;49.444;11.054;2023-04-07T00:24:13;5.80;65.00
5346;DHT22;2695;49.444;11.054;2023-04-07T00:26:53;5.90;65.10
5346;DHT22;2695;49.444;11.054;2023-04-07T00:29:23;5.90;64.80
5346;DHT22;2695;49.444;11.054;2023-04-07T00:31:51;5.90;65.10
5346;DHT22;2695;49.444;11.054;2023-04-07T00:34:19;5.80;65.30
5346;DHT22;2695;49.444;11.054;2023-04-07T00:36:47;5.80;65.50
5346;DHT22;2695;49.444;11.054;2023-04-07T00:39:18;5.90;66.10
5346;DHT22;2695;49.444;11.054;2023-04-07T00:41:46;6.00;66.40
5346;DHT22;2695;49.444;11.054;2023-04-07T00:44:14;6.10;66.30
5346;DHT22;2695;49.444;11.054;2023-04-07T00:46:45;6.20;65.90
5346;DHT22;2695;49.444;11.054;2023-04-07T00:49:14;6.20;65.20
5346;DHT22;2695;49.444;11.054;2023-04-07T00:51:44;6.20;64.60
5346;DHT22;2695;49.444;11.054;2023-04-07T00:54:12;6.20;64.70
5346;DHT22;2695;49.444;11.054;2023-04-07T00:56:40;6.30;64.80
5346;DHT22;2695;49.444;11.054;2023-04-07T00:59:09;6.30;64.90
5346;DHT22;2695;49.444;11.054;2023-04-07T01:01:43;6.30;65.30
5346;DHT22;2695;49.444;11.054;2023-04-07T01:04:19;6.30;65.20
5346;DHT22;2695;49.444;11.054;2023-04-07T01:06:50;6.30;64.90
5346;DHT22;2695;49.444;11.054;2023-04-07T01:09:24;6.30;64.80
5346;DHT22;2695;49.444;11.054;2023-04-07T01:11:58;6.10;64.60
5346;DHT22;2695;49.444;11.054;2023-04-07T01:14:34;5.90;65.10
5346;DHT22;2695;49.444;11.054;2023-04-07T01:17:06;5.80;65.50
5346;DHT22;2695;49.444;11.054;2023-04-07T01:19:37;5.70;65.90
5346;DHT22;2695;49.444;11.054;2023-04-07T01:22:13;5.70;66.30
5346;DHT22;2695;49.444;11.054;2023-04-07T01:25:02;5.70;66.30
5346;DHT22;2695;49.444;11.054;2023-04-07T01:27:37;5.70;66.30
5346;DHT22;2695;49.444;11.054;2023-04-07T01:30:11;5.80;66.20
5346;DHT22;2695;49.444;11.054;2023-04-07T01:32:40;5.90;66.40
5346;DHT22;2695;49.444;11.054;2023-04-07T01:35:12;6.00;66.10
5346;DHT22;2695;49.444;11.054;2023-04-07T01:37:40;6.00;65.50
5346;DHT22;2695;49.444;11.054;2023-04-07T01:40:12;6.00;65.60
5346;DHT22;2695;49.444;11.054;2023-04-07T01:42:42;6.10;65.90
5346;DHT22;2695;49.444;11.054;2023-04-07T01:45:13;6.20;65.80
5346;DHT22;2695;49.444;11.054;2023-04-07T01:47:42;6.20;65.60
5346;DHT22;2695;49.444;11.054;2023-04-07T01:50:11;6.20;65.40
5346;DHT22;2695;49.444;11.054;2023-04-07T01:52:40;6.20;65.10
5346;DHT22;2695;49.444;11.054;2023-04-07T01:55:09;6.20;65.20
5346;DHT22;2695;49.444;11.054;2023-04-07T01:57:38;6.20;65.40
5346;DHT22;2695;49.444;11.054;2023-04-07T02:00:07;6.20;65.20
5346;DHT22;2695;49.444;11.054;2023-04-07T02:02:41;6.10;65.20
5346;DHT22;2695;49.444;11.054;2023-04-07T02:05:13;6.10;65.60
5346;DHT22;2695;49.444;11.054;2023-04-07T02:07:48;6.10;66.00
5346;DHT22;2695;49.444;11.054;2023-04-07T02:10:20;6.00;66.10
5346;DHT22;2695;49.444;11.054;2023-04-07T02:12:49;6.00;65.80
5346;DHT22;2695;49.444;11.054;2023-04-07T02:15:19;6.00;66.20
5346;DHT22;2695;49.444;11.054;2023-04-07T02:17:52;5.90;67.50
5346;DHT22;2695;49.444;11.054;2023-04-07T02:20:22;5.90;66.70
5346;DHT22;2695;49.444;11.054;2023-04-07T02:22:51;5.80;66.80
5346;DHT22;2695;49.444;11.054;2023-04-07T02:25:23;5.80;67.10
5346;DHT22;2695;49.444;11.054;2023-04-07T02:27:53;5.80;67.40
5346;DHT22;2695;49.444;11.054;2023-04-07T02:30:21;5.80;67.80
5346;DHT22;2695;49.444;11.054;2023-04-07T02:32:51;5.80;67.90
5346;DHT22;2695;49.444;11.054;2023-04-07T02:35:19;5.80;67.60
5346;DHT22;2695;49.444;11.054;2023-04-07T02:37:47;5.80;67.90
5346;DHT22;2695;49.444;11.054;2023-04-07T02:40:15;5.80;68.30
5346;DHT22;2695;49.444;11.054;2023-04-07T02:42:44;5.70;68.50
5346;DHT22;2695;49.444;11.054;2023-04-07T02:45:12;5.70;69.00
5346;DHT22;2695;49.444;11.054;2023-04-07T02:47:41;5.70;69.00
5346;DHT22;2695;49.444;11.054;2023-04-07T02:50:11;5.70;69.20
5346;DHT22;2695;49.444;11.054;2023-04-07T02:52:39;5.60;69.30
5346;DHT22;2695;49.444;11.054;2023-04-07T02:55:08;5.60;69.60
5346;DHT22;2695;49.444;11.054;2023-04-07T02:57:36;5.60;69.40
5346;DHT22;2695;49.444;11.054;2023-04-07T03:00:05;5.70;69.90
5346;DHT22;2695;49.444;11.054;2023-04-07T03:02:33;5.70;70.10
5346;DHT22;2695;49.444;11.054;2023-04-07T03:05:01;5.70;70.40
5346;DHT22;2695;49.444;11.054;2023-04-07T03:07:31;5.70;70.50
5346;DHT22;2695;49.444;11.054;2023-04-07T03:09:59;5.70;70.80
5346;DHT22;2695;49.444;11.054;2023-04-07T03:12:27;5.60;71.10
5346;DHT22;2695;49.444;11.054;2023-04-07T03:14:55;5.60;71.20
5346;DHT22;2695;49.444;11.054;2023-04-07T03:17:23;5.50;71.40
5346;DHT22;2695;49.444;11.054;2023-04-07T03:19:52;5.50;71.70
5346;DHT22;2695;49.444;11.054;2023-04-07T03:22:19;5.50;72.00
5346;DHT22;2695;49.444;11.054;2023-04-07T03:24:49;5.50;72.20
5346;DHT22;2695;49.444;11.054;2023-04-07T03:27:17;5.70;72.40
5346;DHT22;2695;49.444;11.054;2023-04-07T03:29:46;5.70;72.00
5346;DHT22;2695;49.444;11.054;2023-04-07T03:32:14;5.80;72.10
5346;DHT22;2695;49.444;11.054;2023-04-07T03:34:42;5.80;72.00
5346;DHT22;2695;49.444;11.054;2023-04-07T03:37:10;5.90;71.80
5346;DHT22;2695;49.444;11.054;2023-04-07T03:39:38;5.90;71.50
5346;DHT22;2695;49.444;11.054;2023-04-07T03:42:08;5.90;71.70
5346;DHT22;2695;49.444;11.054;2023-04-07T03:44:36;5.90;71.80
5346;DHT22;2695;49.444;11.054;2023-04-07T03:47:04;5.90;71.70
5346;DHT22;2695;49.444;11.054;2023-04-07T03:49:32;5.90;72.80
5346;DHT22;2695;49.444;11.054;2023-04-07T03:52:00;6.00;72.00
5346;DHT22;2695;49.444;11.054;2023-04-07T03:54:28;6.00;71.80
5346;DHT22;2695;49.444;11.054;2023-04-07T03:56:56;6.00;71.70
5346;DHT22;2695;49.444;11.054;2023-04-07T03:59:26;6.00;71.90
5346;DHT22;2695;49.444;11.054;2023-04-07T04:01:54;6.00;72.10
5346;DHT22;2695;49.444;11.054;2023-04-07T04:04:22;5.90;72.20
5346;DHT22;2695;49.444;11.054;2023-04-07T04:06:51;5.90;72.40
5346;DHT22;2695;49.444;11.054;2023-04-07T04:09:19;6.00;72.70
5346;DHT22;2695;49.444;11.054;2023-04-07T04:11:47;6.00;72.70
5346;DHT22;2695;49.444;11.054;2023-04-07T04:14:15;6.00;72.30
5346;DHT22;2695;49.444;11.054;2023-04-07T04:16:44;6.00;72.20
5346;DHT22;2695;49.444;11.054;2023-04-07T04:19:12;5.90;72.10
5346;DHT22;2695;49.444;11.054;2023-04-07T04:21:40;5.90;71.50
5346;DHT22;2695;49.444;11.054;2023-04-07T04:24:08;5.90;71.10
5346;DHT22;2695;49.444;11.054;2023-04-07T04:26:36;5.80;71.10
5346;DHT22;2695;49.444;11.054;2023-04-07T04:29:04;5.70;70.80
5346;DHT22;2695;49.444;11.054;2023-04-07T04:31:32;5.70;70.90
5346;DHT22;2695;49.444;11.054;2023-04-07T04:34:02;5.60;71.40
5346;DHT22;2695;49.444;11.054;2023-04-07T04:36:30;5.70;71.60
5346;DHT22;2695;49.444;11.054;2023-04-07T04:38:58;5.70;71.40
5346;DHT22;2695;49.444;11.054;2023-04-07T04:41:26;5.70;71.70
5346;DHT22;2695;49.444;11.054;2023-04-07T04:43:54;5.60;71.80
5346;DHT22;2695;49.444;11.054;2023-04-07T04:46:22;5.60;72.10
5346;DHT22;2695;49.444;11.054;2023-04-07T04:48:50;5.60;72.20
5346;DHT22;2695;49.444;11.054;2023-04-07T04:51:20;5.60;72.10
5346;DHT22;2695;49.444;11.054;2023-04-07T04:53:47;5.70;71.80
5346;DHT22;2695;49.444;11.054;2023-04-07T04:56:16;5.70;72.00
5346;DHT22;2695;49.444;11.054;2023-04-07T04:58:44;5.70;72.20
5346;DHT22;2695;49.444;11.054;2023-04-07T05:01:12;5.80;72.30
5346;DHT22;2695;49.444;11.054;2023-04-07T05:03:41;6.10;71.40
5346;DHT22;2695;49.444;11.054;2023-04-07T05:06:09;6.50;71.00
5346;DHT22;2695;49.444;11.054;2023-04-07T05:08:38;7.10;68.10
5346;DHT22;2695;49.444;11.054;2023-04-07T05:11:07;7.80;66.80
5346;DHT22;2695;49.444;11.054;2023-04-07T05:13:35;8.40;66.00
5346;DHT22;2695;49.444;11.054;2023-04-07T05:16:03;9.10;62.10
5346;DHT22;2695;49.444;11.054;2023-04-07T05:18:31;9.70;60.20
5346;DHT22;2695;49.444;11.054;2023-04-07T05:20:59;10.20;57.70
5346;DHT22;2695;49.444;11.054;2023-04-07T05:23:28;10.60;57.10
5346;DHT22;2695;49.444;11.054;2023-04-07T05:25:57;11.00;55.50
5346;DHT22;2695;49.444;11.054;2023-04-07T05:28:25;11.10;54.80
5346;DHT22;2695;49.444;11.054;2023-04-07T05:30:53;11.20;54.60
5346;DHT22;2695;49.444;11.054;2023-04-07T05:33:21;11.20;54.50
5346;DHT22;2695;49.444;11.054;2023-04-07T05:35:49;11.30;54.10
5346;DHT22;2695;49.444;11.054;2023-04-07T05:38:17;11.30;54.40
5346;DHT22;2695;49.444;11.054;2023-04-07T05:40:46;11.60;53.60
5346;DHT22;2695;49.444;11.054;2023-04-07T05:43:15;11.80;52.90
5346;DHT22;2695;49.444;11.054;2023-04-07T05:45:43;11.90;53.00
5346;DHT22;2695;49.444;11.054;2023-04-07T05:48:11;12.20;53.00
5346;DHT22;2695;49.444;11.054;2023-04-07T05:50:39;12.60;52.50
5346;DHT22;2695;49.444;11.054;2023-04-07T05:53:07;13.00;52.00
5346;DHT22;2695;49.444;11.054;2023-04-07T05:55:35;13.50;50.50
5346;DHT22;2695;49.444;11.054;2023-04-07T05:58:03;13.70;49.90
5346;DHT22;2695;49.444;11.054;2023-04-07T06:00:32;13.70;49.10
5346;DHT22;2695;49.444;11.054;2023-04-07T06:03:00;13.60;49.30
5346;DHT22;2695;49.444;11.054;2023-04-07T06:05:29;13.60;49.30
5346;DHT22;2695;49.444;11.054;2023-04-07T06:07:57;13.30;49.20
5346;DHT22;2695;49.444;11.054;2023-04-07T06:10:25;13.20;49.60
5346;DHT22;2695;49.444;11.054;2023-04-07T06:12:53;13.30;49.70
5346;DHT22;2695;49.444;11.054;2023-04-07T06:15:21;13.70;49.40
5346;DHT22;2695;49.444;11.054;2023-04-07T06:17:51;14.10;48.50
5346;DHT22;2695;49.444;11.054;2023-04-07T06:20:19;14.40;47.70
5346;DHT22;2695;49.444;11.054;2023-04-07T06:22:48;14.70;47.20
5346;DHT22;2695;49.444;11.054;2023-04-07T06:25:16;15.10;46.10
5346;DHT22;2695;49.444;11.054;2023-04-07T06:27:44;15.50;46.10
5346;DHT22;2695;49.444;11.054;2023-04-07T06:30:13;16.20;45.40
5346;DHT22;2695;49.444;11.054;2023-04-07T06:32:41;16.80;44.80
5346;DHT22;2695;49.444;11.054;2023-04-07T06:35:10;17.70;43.20
5346;DHT22;2695;49.444;11.054;2023-04-07T06:37:38;18.50;41.70
5346;DHT22;2695;49.444;11.054;2023-04-07T06:40:07;19.00;40.60
5346;DHT22;2695;49.444;11.054;2023-04-07T06:42:36;19.40;40.20
5346;DHT22;2695;49.444;11.054;2023-04-07T06:45:04;20.00;39.10
5346;DHT22;2695;49.444;11.054;2023-04-07T06:47:32;20.50;38.10
5346;DHT22;2695;49.444;11.054;2023-04-07T06:50:01;20.80;37.10
5346;DHT22;2695;49.444;11.054;2023-04-07T06:52:30;21.00;37.00
5346;DHT22;2695;49.444;11.054;2023-04-07T06:54:58;21.40;36.30
5346;DHT22;2695;49.444;11.054;2023-04-07T06:57:26;21.70;35.70
5346;DHT22;2695;49.444;11.054;2023-04-07T06:59:54;22.20;35.00
5346;DHT22;2695;49.444;11.054;2023-04-07T07:02:22;22.30;33.90
5346;DHT22;2695;49.444;11.054;2023-04-07T07:04:50;22.20;34.20
5346;DHT22;2695;49.444;11.054;2023-04-07T07:07:18;21.90;33.80
5346;DHT22;2695;49.444;11.054;2023-04-07T07:09:50;22.00;34.70
5346;DHT22;2695;49.444;11.054;2023-04-07T07:12:18;22.00;33.70
5346;DHT22;2695;49.444;11.054;2023-04-07T07:14:46;21.80;34.10
5346;DHT22;2695;49.444;11.054;2023-04-07T07:17:14;21.90;34.10
5346;DHT22;2695;49.444;11.054;2023-04-07T07:19:42;22.30;33.70
5346;DHT22;2695;49.444;11.054;2023-04-07T07:22:10;22.40;33.00
5346;DHT22;2695;49.444;11.054;2023-04-07T07:24:38;22.20;33.40
5346;DHT22;2695;49.444;11.054;2023-04-07T07:27:07;21.90;33.60
5346;DHT22;2695;49.444;11.054;2023-04-07T07:29:35;22.00;33.30
5346;DHT22;2695;49.444;11.054;2023-04-07T07:32:03;21.80;33.50
5346;DHT22;2695;49.444;11.054;2023-04-07T07:34:32;21.90;33.60
5346;DHT22;2695;49.444;11.054;2023-04-07T07:37:00;22.00;33.20
5346;DHT22;2695;49.444;11.054;2023-04-07T07:39:28;22.10;33.60
5346;DHT22;2695;49.444;11.054;2023-04-07T07:41:56;22.10;32.90
5346;DHT22;2695;49.444;11.054;2023-04-07T07:44:26;22.10;33.00
5346;DHT22;2695;49.444;11.054;2023-04-07T07:46:56;22.20;32.90
5346;DHT22;2695;49.444;11.054;2023-04-07T07:49:24;22.10;33.10
5346;DHT22;2695;49.444;11.054;2023-04-07T07:51:52;22.10;33.10
5346;DHT22;2695;49.444;11.054;2023-04-07T07:54:20;22.00;33.40
5346;DHT22;2695;49.444;11.054;2023-04-07T07:56:48;21.70;33.50
5346;DHT22;2695;49.444;11.054;2023-04-07T07:59:16;21.50;34.20
5346;DHT22;2695;49.444;11.054;2023-04-07T08:01:46;21.40;34.60
5346;DHT22;2695;49.444;11.054;2023-04-07T08:04:14;21.50;34.50
5346;DHT22;2695;49.444;11.054;2023-04-07T08:06:42;21.80;34.20
5346;DHT22;2695;49.444;11.054;2023-04-07T08:09:11;22.30;33.50
5346;DHT22;2695;49.444;11.054;2023-04-07T08:11:39;22.70;33.40
5346;DHT22;2695;49.444;11.054;2023-04-07T08:14:07;23.20;32.90
5346;DHT22;2695;49.444;11.054;2023-04-07T08:16:36;23.70;32.30
5346;DHT22;2695;49.444;11.054;2023-04-07T08:19:05;24.10;32.30
5346;DHT22;2695;49.444;11.054;2023-04-07T08:21:36;24.60;31.80
5346;DHT22;2695;49.444;11.054;2023-04-07T08:24:10;25.20;30.90
5346;DHT22;2695;49.444;11.054;2023-04-07T08:26:38;25.60;30.40
5346;DHT22;2695;49.444;11.054;2023-04-07T08:29:06;25.80;30.70
5346;DHT22;2695;49.444;11.054;2023-04-07T08:31:34;25.60;30.20
5346;DHT22;2695;49.444;11.054;2023-04-07T08:34:02;25.30;30.60
5346;DHT22;2695;49.444;11.054;2023-04-07T08:36:32;24.80;31.20
5346;DHT22;2695;49.444;11.054;2023-04-07T08:39:00;24.40;31.70
5346;DHT22;2695;49.444;11.054;2023-04-07T08:41:35;24.10;32.50
5346;DHT22;2695;49.444;11.054;2023-04-07T08:44:03;23.60;32.70
5346;DHT22;2695;49.444;11.054;2023-04-07T08:46:32;23.10;33.10
5346;DHT22;2695;49.444;11.054;2023-04-07T08:49:01;22.50;34.20
5346;DHT22;2695;49.444;11.054;2023-04-07T08:54:39;21.60;35.10
5346;DHT22;2695;49.444;11.054;2023-04-07T08:57:09;21.50;35.10
5346;DHT22;2695;49.444;11.054;2023-04-07T08:59:38;21.50;36.00
5346;DHT22;2695;49.444;11.054;2023-04-07T09:02:09;21.50;35.70
5346;DHT22;2695;49.444;11.054;2023-04-07T09:04:37;21.50;35.90
5346;DHT22;2695;49.444;11.054;2023-04-07T09:10:54;21.60;35.50
5346;DHT22;2695;49.444;11.054;2023-04-07T09:13:23;21.90;35.20
5346;DHT22;2695;49.444;11.054;2023-04-07T09:15:51;22.10;35.20
5346;DHT22;2695;49.444;11.054;2023-04-07T09:18:19;22.00;35.20
5346;DHT22;2695;49.444;11.054;2023-04-07T09:21:00;22.00;35.20
5346;DHT22;2695;49.444;11.054;2023-04-07T09:23:36;22.10;35.20
5346;DHT22;2695;49.444;11.054;2023-04-07T09:26:21;22.10;35.10
5346;DHT22;2695;49.444;11.054;2023-04-07T09:29:18;22.40;35.30
5346;DHT22;2695;49.444;11.054;2023-04-07T09:31:48;22.70;34.50
5346;DHT22;2695;49.444;11.054;2023-04-07T09:34:25;22.80;34.20
5346;DHT22;2695;49.444;11.054;2023-04-07T09:36:54;22.80;33.90
5346;DHT22;2695;49.444;11.054;2023-04-07T09:39:23;22.70;34.10
5346;DHT22;2695;49.444;11.054;2023-04-07T09:41:53;22.50;34.60
5346;DHT22;2695;49.444;11.054;2023-04-07T09:44:22;22.60;34.30
5346;DHT22;2695;49.444;11.054;2023-04-07T09:46:52;22.90;34.30
5346;DHT22;2695;49.444;11.054;2023-04-07T09:49:21;23.00;33.60
5346;DHT22;2695;49.444;11.054;2023-04-07T09:52:05;23.00;33.70
5346;DHT22;2695;49.444;11.054;2023-04-07T09:54:35;23.00;33.80
5346;DHT22;2695;49.444;11.054;2023-04-07T09:57:06;23.00;33.30
5346;DHT22;2695;49.444;11.054;2023-04-07T09:59:36;22.90;33.00
5346;DHT22;2695;49.444;11.054;2023-04-07T10:02:05;22.90;33.20
5346;DHT22;2695;49.444;11.054;2023-04-07T10:04:33;22.90;33.40
5346;DHT22;2695;49.444;11.054;2023-04-07T10:07:02;22.90;33.70
5346;DHT22;2695;49.444;11.054;2023-04-07T10:09:32;23.00;35.00
5346;DHT22;2695;49.444;11.054;2023-04-07T10:12:00;23.40;33.60
5346;DHT22;2695;49.444;11.054;2023-04-07T10:14:31;23.90;33.10
5346;DHT22;2695;49.444;11.054;2023-04-07T10:17:00;24.50;32.50
5346;DHT22;2695;49.444;11.054;2023-04-07T10:19:30;25.10;31.60
5346;DHT22;2695;49.444;11.054;2023-04-07T10:22:01;25.30;30.90
5346;DHT22;2695;49.444;11.054;2023-04-07T10:24:41;25.40;30.70
5346;DHT22;2695;49.444;11.054;2023-04-07T10:27:15;25.60;30.40
5346;DHT22;2695;49.444;11.054;2023-04-07T10:29:48;25.90;30.00
5346;DHT22;2695;49.444;11.054;2023-04-07T10:36:05;26.30;30.00
5346;DHT22;2695;49.444;11.054;2023-04-07T10:39:23;27.30;29.60
5346;DHT22;2695;49.444;11.054;2023-04-07T10:45:08;27.00;27.90
5346;DHT22;2695;49.444;11.054;2023-04-07T10:48:10;26.50;28.30
5346;DHT22;2695;49.444;11.054;2023-04-07T10:50:39;26.60;28.40
5346;DHT22;2695;49.444;11.054;2023-04-07T10:53:09;26.80;28.50
5346;DHT22;2695;49.444;11.054;2023-04-07T10:55:38;26.10;28.40
5346;DHT22;2695;49.444;11.054;2023-04-07T10:58:14;24.90;29.00
5346;DHT22;2695;49.444;11.054;2023-04-07T11:01:16;24.80;29.80
5346;DHT22;2695;49.444;11.054;2023-04-07T11:03:58;25.20;29.50
5346;DHT22;2695;49.444;11.054;2023-04-07T11:06:27;25.10;29.70
5346;DHT22;2695;49.444;11.054;2023-04-07T11:08:56;24.70;29.50
5346;DHT22;2695;49.444;11.054;2023-04-07T11:11:40;24.20;30.00
5346;DHT22;2695;49.444;11.054;2023-04-07T11:14:08;24.20;30.70
5346;DHT22;2695;49.444;11.054;2023-04-07T11:16:41;24.40;30.70
5346;DHT22;2695;49.444;11.054;2023-04-07T11:19:09;24.20;30.30
5346;DHT22;2695;49.444;11.054;2023-04-07T11:21:38;23.70;31.00
5346;DHT22;2695;49.444;11.054;2023-04-07T11:24:06;23.40;31.20
5346;DHT22;2695;49.444;11.054;2023-04-07T11:26:38;23.60;31.60
5346;DHT22;2695;49.444;11.054;2023-04-07T11:29:07;23.50;31.90
5346;DHT22;2695;49.444;11.054;2023-04-07T11:31:37;23.40;31.70
5346;DHT22;2695;49.444;11.054;2023-04-07T11:34:06;23.20;31.70
5346;DHT22;2695;49.444;11.054;2023-04-07T11:36:37;23.00;32.20
5346;DHT22;2695;49.444;11.054;2023-04-07T11:39:17;22.90;32.20
5346;DHT22;2695;49.444;11.054;2023-04-07T11:41:47;22.50;32.80
5346;DHT22;2695;49.444;11.054;2023-04-07T11:44:15;22.20;33.10
5346;DHT22;2695;49.444;11.054;2023-04-07T11:46:56;22.00;32.90
5346;DHT22;2695;49.444;11.054;2023-04-07T11:49:26;22.30;32.80
5346;DHT22;2695;49.444;11.054;2023-04-07T11:51:59;22.60;32.50
5346;DHT22;2695;49.444;11.054;2023-04-07T11:54:38;22.80;32.60
5346;DHT22;2695;49.444;11.054;2023-04-07T11:57:07;22.90;32.80
5346;DHT22;2695;49.444;11.054;2023-04-07T11:59:38;22.90;32.60
5346;DHT22;2695;49.444;11.054;2023-04-07T12:02:07;23.10;33.20
5346;DHT22;2695;49.444;11.054;2023-04-07T12:04:36;22.90;33.60
5346;DHT22;2695;49.444;11.054;2023-04-07T12:07:07;22.70;33.80
5346;DHT22;2695;49.444;11.054;2023-04-07T12:09:36;22.60;34.20
5346;DHT22;2695;49.444;11.054;2023-04-07T12:12:07;22.10;34.30
5346;DHT22;2695;49.444;11.054;2023-04-07T12:14:36;21.60;34.50
5346;DHT22;2695;49.444;11.054;2023-04-07T12:17:04;21.40;34.70
5346;DHT22;2695;49.444;11.054;2023-04-07T12:19:35;21.50;34.90
5346;DHT22;2695;49.444;11.054;2023-04-07T12:22:05;21.40;34.80
5346;DHT22;2695;49.444;11.054;2023-04-07T12:24:34;21.50;34.80
5346;DHT22;2695;49.444;11.054;2023-04-07T12:27:14;21.80;34.90
5346;DHT22;2695;49.444;11.054;2023-04-07T12:29:43;21.60;35.70
5346;DHT22;2695;49.444;11.054;2023-04-07T12:32:12;21.10;35.90
5346;DHT22;2695;49.444;11.054;2023-04-07T12:34:42;20.80;36.60
5346;DHT22;2695;49.444;11.054;2023-04-07T12:40:33;19.80;37.80
5346;DHT22;2695;49.444;11.054;2023-04-07T12:43:02;19.70;38.40
5346;DHT22;2695;49.444;11.054;2023-04-07T12:45:30;19.50;38.20
5346;DHT22;2695;49.444;11.054;2023-04-07T12:48:30;19.20;38.70
5346;DHT22;2695;49.444;11.054;2023-04-07T12:51:43;19.00;39.60
5346;DHT22;2695;49.444;11.054;2023-04-07T12:54:12;18.80;39.00
5346;DHT22;2695;49.444;11.054;2023-04-07T12:57:08;18.80;38.80
5346;DHT22;2695;49.444;11.054;2023-04-07T12:59:38;18.80;39.10
5346;DHT22;2695;49.444;11.054;2023-04-07T13:02:07;18.90;39.10
5346;DHT22;2695;49.444;11.054;2023-04-07T13:04:35;19.10;39.20
5346;DHT22;2695;49.444;11.054;2023-04-07T13:07:08;19.20;38.90
5346;DHT22;2695;49.444;11.054;2023-04-07T13:09:36;19.10;38.30
5346;DHT22;2695;49.444;11.054;2023-04-07T13:12:05;19.00;38.50
5346;DHT22;2695;49.444;11.054;2023-04-07T13:14:33;19.10;38.80
5346;DHT22;2695;49.444;11.054;2023-04-07T13:17:15;19.40;38.80
5346;DHT22;2695;49.444;11.054;2023-04-07T13:19:44;19.50;38.00
5346;DHT22;2695;49.444;11.054;2023-04-07T13:22:15;19.40;37.90
5346;DHT22;2695;49.444;11.054;2023-04-07T13:24:48;19.40;38.60
5346;DHT22;2695;49.444;11.054;2023-04-07T13:30:43;19.50;38.40
5346;DHT22;2695;49.444;11.054;2023-04-07T13:33:12;19.60;38.50
5346;DHT22;2695;49.444;11.054;2023-04-07T13:35:40;19.60;38.50
5346;DHT22;2695;49.444;11.054;2023-04-07T13:38:09;19.60;40.60
5346;DHT22;2695;49.444;11.054;2023-04-07T13:40:38;19.30;42.40
5346;DHT22;2695;49.444;11.054;2023-04-07T13:43:07;19.30;43.10
5346;DHT22;2695;49.444;11.054;2023-04-07T13:45:37;19.30;42.80
5346;DHT22;2695;49.444;11.054;2023-04-07T13:48:07;19.30;43.30
5346;DHT22;2695;49.444;11.054;2023-04-07T13:50:36;19.30;43.70
5346;DHT22;2695;49.444;11.054;2023-04-07T13:53:05;19.20;43.30
5346;DHT22;2695;49.444;11.054;2023-04-07T13:55:36;19.00;43.40
5346;DHT22;2695;49.444;11.054;2023-04-07T13:58:05;18.80;43.90
5346;DHT22;2695;49.444;11.054;2023-04-07T14:00:34;18.80;44.30
5346;DHT22;2695;49.444;11.054;2023-04-07T14:03:04;18.70;44.30
5346;DHT22;2695;49.444;11.054;2023-04-07T14:05:43;18.60;45.10
5346;DHT22;2695;49.444;11.054;2023-04-07T14:08:12;18.40;45.30
5346;DHT22;2695;49.444;11.054;2023-04-07T14:10:41;18.10;45.80
5346;DHT22;2695;49.444;11.054;2023-04-07T14:13:10;17.70;46.30
5346;DHT22;2695;49.444;11.054;2023-04-07T14:15:38;17.40;47.00
5346;DHT22;2695;49.444;11.054;2023-04-07T14:18:06;17.30;47.80
5346;DHT22;2695;49.444;11.054;2023-04-07T14:20:35;17.30;47.50
5346;DHT22;2695;49.444;11.054;2023-04-07T14:23:03;17.30;47.20
5346;DHT22;2695;49.444;11.054;2023-04-07T14:25:31;17.20;47.10
5346;DHT22;2695;49.444;11.054;2023-04-07T14:28:01;17.00;47.90
5346;DHT22;2695;49.444;11.054;2023-04-07T14:30:29;16.90;48.40
5346;DHT22;2695;49.444;11.054;2023-04-07T14:32:57;16.70;48.70
5346;DHT22;2695;49.444;11.054;2023-04-07T14:35:26;16.70;49.30
5346;DHT22;2695;49.444;11.054;2023-04-07T14:37:54;16.60;48.70
5346;DHT22;2695;49.444;11.054;2023-04-07T14:40:22;16.50;49.00
5346;DHT22;2695;49.444;11.054;2023-04-07T14:42:50;16.50;49.50
5346;DHT22;2695;49.444;11.054;2023-04-07T14:45:21;16.40;49.50
5346;DHT22;2695;49.444;11.054;2023-04-07T14:47:50;16.40;49.20
5346;DHT22;2695;49.444;11.054;2023-04-07T14:50:18;16.50;49.90
5346;DHT22;2695;49.444;11.054;2023-04-07T14:52:46;16.50;49.40
5346;DHT22;2695;49.444;11.054;2023-04-07T14:55:14;16.50;48.70
5346;DHT22;2695;49.444;11.054;2023-04-07T14:57:44;16.50;48.50
5346;DHT22;2695;49.444;11.054;2023-04-07T15:00:13;16.40;48.60
5346;DHT22;2695;49.444;11.054;2023-04-07T15:02:42;16.30;48.80
5346;DHT22;2695;49.444;11.054;2023-04-07T15:05:11;16.20;49.30
5346;DHT22;2695;49.444;11.054;2023-04-07T15:07:39;16.20;49.90
5346;DHT22;2695;49.444;11.054;2023-04-07T15:10:08;16.10;50.10
5346;DHT22;2695;49.444;11.054;2023-04-07T15:12:36;16.10;50.30
5346;DHT22;2695;49.444;11.054;2023-04-07T15:15:05;16.10;50.30
5346;DHT22;2695;49.444;11.054;2023-04-07T15:17:33;16.00;50.40
5346;DHT22;2695;49.444;11.054;2023-04-07T15:20:11;16.00;50.70
5346;DHT22;2695;49.444;11.054;2023-04-07T15:22:40;16.00;50.70
5346;DHT22;2695;49.444;11.054;2023-04-07T15:25:08;15.90;50.70
5346;DHT22;2695;49.444;11.054;2023-04-07T15:27:37;15.90;50.70
5346;DHT22;2695;49.444;11.054;2023-04-07T15:30:06;15.90;50.90
5346;DHT22;2695;49.444;11.054;2023-04-07T15:32:56;15.90;51.20
5346;DHT22;2695;49.444;11.054;2023-04-07T15:35:29;15.80;51.60
5346;DHT22;2695;49.444;11.054;2023-04-07T15:37:58;15.80;51.70
5346;DHT22;2695;49.444;11.054;2023-04-07T15:40:26;15.70;51.50
5346;DHT22;2695;49.444;11.054;2023-04-07T15:42:54;15.50;51.70
5346;DHT22;2695;49.444;11.054;2023-04-07T15:45:22;15.40;52.10
5346;DHT22;2695;49.444;11.054;2023-04-07T15:47:52;15.30;52.00
5346;DHT22;2695;49.444;11.054;2023-04-07T15:50:20;15.30;51.90
5346;DHT22;2695;49.444;11.054;2023-04-07T15:52:50;15.30;51.50
5346;DHT22;2695;49.444;11.054;2023-04-07T15:55:19;15.30;52.00
5346;DHT22;2695;49.444;11.054;2023-04-07T15:57:47;15.30;51.60
5346;DHT22;2695;49.444;11.054;2023-04-07T16:00:16;15.30;51.60
5346;DHT22;2695;49.444;11.054;2023-04-07T16:02:45;15.30;51.70
5346;DHT22;2695;49.444;11.054;2023-04-07T16:05:13;15.20;51.80
5346;DHT22;2695;49.444;11.054;2023-04-07T16:07:41;15.30;52.20
5346;DHT22;2695;49.444;11.054;2023-04-07T16:10:11;15.20;51.60
5346;DHT22;2695;49.444;11.054;2023-04-07T16:12:39;15.10;52.20
5346;DHT22;2695;49.444;11.054;2023-04-07T16:15:08;15.10;52.10
5346;DHT22;2695;49.444;11.054;2023-04-07T16:17:37;15.10;51.80
5346;DHT22;2695;49.444;11.054;2023-04-07T16:20:07;15.10;51.60
5346;DHT22;2695;49.444;11.054;2023-04-07T16:22:40;15.00;52.50
5346;DHT22;2695;49.444;11.054;2023-04-07T16:25:10;15.00;52.00
5346;DHT22;2695;49.444;11.054;2023-04-07T16:27:38;14.90;52.10
5346;DHT22;2695;49.444;11.054;2023-04-07T16:30:07;14.90;52.50
5346;DHT22;2695;49.444;11.054;2023-04-07T16:32:36;14.90;51.90